sensor_id;sensor_type;location;lat;lon;timestamp;pressure;altitude;pressure_sealevel;temperature;humidity
10014;BME280;45684;48.358;10.746;2022-07-03T00:00:44;96460.97;;;16.06;100.00
10014;BME280;45684;48.358;10.746;2022-07-03T00:03:12;96467.91;;;16.04;100.00
10014;BME280;45684;48.358;10.746;2022-07-03T00:05:39;96470.06;;;15.98;100.00
10014;BME280;45684;48.358;10.746;2022-07-03T00:08:07;96466.78;;;15.93;100.00
10014;BME280;45684;48.358;10.746;2022-07-03T00:10:36;96473.28;;;15.88;100.00
10014;BME280;45684;48.358;10.746;2022-07-03T00:13:04;96477.50;;;15.86;100.00
10014;BME280;45684;48.358;10.746;2022-07-03T00:15:32;96484.66;;;15.78;100.00
10014;BME280;45684;48.358;10.746;2022-07-03T00:18:00;96482.38;;;15.80;100.00
10014;BME280;45684;48.358;10.746;2022-07-03T00:20:30;96480.44;;;15.68;100.00
10014;BME280;45684;48.358;10.746;2022-07-03T00:23:04;96476.66;;;15.61;100.00
10014;BME280;45684;48.358;10.746;2022-07-03T00:25:39;96470.22;;;15.53;100.00
10014;BME280;45684;48.358;10.746;2022-07-03T00:28:08;96473.03;;;15.44;100.00
10014;BME280;45684;48.358;10.746;2022-07-03T00:30:36;96470.09;;;15.49;100.00
10014;BME280;45684;48.358;10.746;2022-07-03T00:33:04;96464.38;;;15.42;100.00
10014;BME280;45684;48.358;10.746;2022-07-03T00:35:35;96475.16;;;15.39;100.00
10014;BME280;45684;48.358;10.746;2022-07-03T00:38:04;96474.59;;;15.33;100.00
10014;BME280;45684;48.358;10.746;2022-07-03T00:40:32;96477.09;;;15.26;100.00
10014;BME280;45684;48.358;10.746;2022-07-03T00:43:03;96469.25;;;15.24;100.00
10014;BME280;45684;48.358;10.746;2022-07-03T00:45:34;96474.69;;;15.24;100.00
10014;BME280;45684;48.358;10.746;2022-07-03T00:48:02;96474.25;;;15.22;100.00
10014;BME280;45684;48.358;10.746;2022-07-03T00:50:35;96468.69;;;15.07;100.00
10014;BME280;45684;48.358;10.746;2022-07-03T00:53:03;96467.84;;;15.06;100.00
10014;BME280;45684;48.358;10.746;2022-07-03T00:55:33;96475.13;;;15.02;100.00
10014;BME280;45684;48.358;10.746;2022-07-03T00:58:05;96472.41;;;15.02;100.00
10014;BME280;45684;48.358;10.746;2022-07-03T01:00:34;96478.38;;;14.95;100.00
10014;BME280;45684;48.358;10.746;2022-07-03T01:03:06;96479.28;;;14.87;100.00
10014;BME280;45684;48.358;10.746;2022-07-03T01:05:37;96479.41;;;14.91;100.00
10014;BME280;45684;48.358;10.746;2022-07-03T01:08:11;96465.00;;;14.90;100.00
10014;BME280;45684;48.358;10.746;2022-07-03T01:10:49;96471.56;;;14.89;100.00
10014;BME280;45684;48.358;10.746;2022-07-03T01:13:32;96466.78;;;14.86;100.00
10014;BME280;45684;48.358;10.746;2022-07-03T01:16:05;96474.16;;;14.86;100.00
10014;BME280;45684;48.358;10.746;2022-07-03T01:18:41;96470.91;;;14.92;100.00
10014;BME280;45684;48.358;10.746;2022-07-03T01:21:35;96468.97;;;14.93;100.00
10014;BME280;45684;48.358;10.746;2022-07-03T01:24:37;96470.44;;;14.90;100.00
10014;BME280;45684;48.358;10.746;2022-07-03T01:27:13;96466.72;;;14.95;100.00
10014;BME280;45684;48.358;10.746;2022-07-03T01:29:49;96467.84;;;14.94;100.00
10014;BME280;45684;48.358;10.746;2022-07-03T01:32:22;96464.31;;;14.93;100.00
10014;BME280;45684;48.358;10.746;2022-07-03T01:34:52;96461.13;;;14.79;100.00
10014;BME280;45684;48.358;10.746;2022-07-03T01:37:24;96457.97;;;14.89;100.00
10014;BME280;45684;48.358;10.746;2022-07-03T01:39:57;96450.53;;;14.77;100.00
10014;BME280;45684;48.358;10.746;2022-07-03T01:42:28;96449.63;;;14.73;100.00
10014;BME280;45684;48.358;10.746;2022-07-03T01:44:58;96453.44;;;14.60;100.00
10014;BME280;45684;48.358;10.746;2022-07-03T01:47:28;96453.97;;;14.87;100.00
10014;BME280;45684;48.358;10.746;2022-07-03T01:49:57;96449.75;;;14.77;100.00
10014;BME280;45684;48.358;10.746;2022-07-03T01:52:26;96451.38;;;14.57;100.00
10014;BME280;45684;48.358;10.746;2022-07-03T01:55:11;96444.81;;;14.58;100.00
10014;BME280;45684;48.358;10.746;2022-07-03T01:57:44;96451.66;;;14.43;100.00
10014;BME280;45684;48.358;10.746;2022-07-03T02:00:15;96454.22;;;14.40;100.00
10014;BME280;45684;48.358;10.746;2022-07-03T02:02:52;96442.91;;;14.38;100.00
10014;BME280;45684;48.358;10.746;2022-07-03T02:05:28;96453.44;;;14.39;100.00
10014;BME280;45684;48.358;10.746;2022-07-03T02:08:04;96448.84;;;14.31;100.00
10014;BME280;45684;48.358;10.746;2022-07-03T02:10:38;96451.78;;;14.26;100.00
10014;BME280;45684;48.358;10.746;2022-07-03T02:13:16;96448.34;;;14.17;100.00
10014;BME280;45684;48.358;10.746;2022-07-03T02:15:49;96448.69;;;14.15;100.00
10014;BME280;45684;48.358;10.746;2022-07-03T02:18:26;96452.34;;;14.19;100.00
10014;BME280;45684;48.358;10.746;2022-07-03T02:21:04;96454.53;;;14.05;100.00
10014;BME280;45684;48.358;10.746;2022-07-03T02:23:36;96456.56;;;14.08;100.00
10014;BME280;45684;48.358;10.746;2022-07-03T02:26:10;96454.88;;;14.03;100.00
10014;BME280;45684;48.358;10.746;2022-07-03T02:28:57;96449.28;;;14.00;100.00
10014;BME280;45684;48.358;10.746;2022-07-03T02:31:27;96446.88;;;13.98;100.00
10014;BME280;45684;48.358;10.746;2022-07-03T02:33:58;96448.94;;;14.01;100.00
10014;BME280;45684;48.358;10.746;2022-07-03T02:36:28;96451.22;;;13.99;100.00
10014;BME280;45684;48.358;10.746;2022-07-03T02:38:57;96463.59;;;14.09;100.00
10014;BME280;45684;48.358;10.746;2022-07-03T02:41:29;96462.47;;;14.10;100.00
10014;BME280;45684;48.358;10.746;2022-07-03T02:44:14;96467.91;;;14.10;100.00
10014;BME280;45684;48.358;10.746;2022-07-03T02:46:52;96470.84;;;14.05;100.00
10014;BME280;45684;48.358;10.746;2022-07-03T02:49:38;96466.84;;;14.02;100.00
10014;BME280;45684;48.358;10.746;2022-07-03T02:52:14;96458.44;;;13.95;100.00
10014;BME280;45684;48.358;10.746;2022-07-03T02:54:48;96457.53;;;13.83;100.00
10014;BME280;45684;48.358;10.746;2022-07-03T02:57:19;96468.94;;;13.76;100.00
10014;BME280;45684;48.358;10.746;2022-07-03T02:59:54;96467.13;;;13.59;100.00
10014;BME280;45684;48.358;10.746;2022-07-03T03:02:53;96472.59;;;13.50;100.00
10014;BME280;45684;48.358;10.746;2022-07-03T03:05:27;96459.75;;;13.30;100.00
10014;BME280;45684;48.358;10.746;2022-07-03T03:08:02;96465.34;;;13.34;100.00
10014;BME280;45684;48.358;10.746;2022-07-03T03:10:34;96469.50;;;13.31;100.00
10014;BME280;45684;48.358;10.746;2022-07-03T03:13:06;96478.63;;;13.26;100.00
10014;BME280;45684;48.358;10.746;2022-07-03T03:15:36;96476.19;;;13.34;100.00
10014;BME280;45684;48.358;10.746;2022-07-03T03:18:05;96479.22;;;13.32;100.00
10014;BME280;45684;48.358;10.746;2022-07-03T03:20:35;96478.91;;;13.34;100.00
10014;BME280;45684;48.358;10.746;2022-07-03T03:23:11;96476.69;;;13.27;100.00
10014;BME280;45684;48.358;10.746;2022-07-03T03:25:39;96484.03;;;13.26;100.00
10014;BME280;45684;48.358;10.746;2022-07-03T03:28:07;96483.59;;;13.24;100.00
10014;BME280;45684;48.358;10.746;2022-07-03T03:30:36;96491.22;;;13.31;100.00
10014;BME280;45684;48.358;10.746;2022-07-03T03:33:05;96484.47;;;13.37;100.00
10014;BME280;45684;48.358;10.746;2022-07-03T03:35:35;96492.00;;;13.32;100.00
10014;BME280;45684;48.358;10.746;2022-07-03T03:38:04;96501.47;;;13.25;100.00
10014;BME280;45684;48.358;10.746;2022-07-03T03:40:32;96508.34;;;13.23;100.00
10014;BME280;45684;48.358;10.746;2022-07-03T03:43:00;96502.44;;;13.12;100.00
10014;BME280;45684;48.358;10.746;2022-07-03T03:45:29;96492.38;;;13.13;100.00
10014;BME280;45684;48.358;10.746;2022-07-03T03:47:58;96492.53;;;13.08;100.00
10014;BME280;45684;48.358;10.746;2022-07-03T03:50:26;96485.97;;;13.09;100.00
10014;BME280;45684;48.358;10.746;2022-07-03T03:52:54;96485.50;;;13.15;100.00
10014;BME280;45684;48.358;10.746;2022-07-03T03:55:22;96488.53;;;13.14;100.00
10014;BME280;45684;48.358;10.746;2022-07-03T03:57:50;96496.66;;;13.14;100.00
10014;BME280;45684;48.358;10.746;2022-07-03T04:00:17;96500.19;;;13.14;100.00
10014;BME280;45684;48.358;10.746;2022-07-03T04:02:45;96500.84;;;13.11;100.00
10014;BME280;45684;48.358;10.746;2022-07-03T04:05:14;96504.84;;;13.05;100.00
10014;BME280;45684;48.358;10.746;2022-07-03T04:07:42;96506.75;;;13.05;100.00
10014;BME280;45684;48.358;10.746;2022-07-03T04:10:10;96506.91;;;13.08;100.00
10014;BME280;45684;48.358;10.746;2022-07-03T04:12:38;96508.19;;;13.11;100.00
10014;BME280;45684;48.358;10.746;2022-07-03T04:15:07;96504.66;;;13.10;100.00
10014;BME280;45684;48.358;10.746;2022-07-03T04:17:34;96502.75;;;13.11;100.00
10014;BME280;45684;48.358;10.746;2022-07-03T04:20:03;96504.97;;;13.17;100.00
10014;BME280;45684;48.358;10.746;2022-07-03T04:22:33;96503.84;;;13.27;100.00
10014;BME280;45684;48.358;10.746;2022-07-03T04:25:00;96494.53;;;13.37;100.00
10014;BME280;45684;48.358;10.746;2022-07-03T04:27:28;96498.50;;;13.48;100.00
10014;BME280;45684;48.358;10.746;2022-07-03T04:30:17;96495.56;;;13.62;100.00
10014;BME280;45684;48.358;10.746;2022-07-03T04:32:45;96499.34;;;13.69;100.00
10014;BME280;45684;48.358;10.746;2022-07-03T04:35:14;96496.72;;;13.82;100.00
10014;BME280;45684;48.358;10.746;2022-07-03T04:37:43;96500.66;;;13.93;100.00
10014;BME280;45684;48.358;10.746;2022-07-03T04:40:12;96499.16;;;14.04;100.00
10014;BME280;45684;48.358;10.746;2022-07-03T04:42:40;96503.41;;;14.14;100.00
10014;BME280;45684;48.358;10.746;2022-07-03T04:45:08;96502.38;;;14.27;100.00
10014;BME280;45684;48.358;10.746;2022-07-03T04:47:36;96504.19;;;14.35;100.00
10014;BME280;45684;48.358;10.746;2022-07-03T04:50:04;96504.28;;;14.47;100.00
10014;BME280;45684;48.358;10.746;2022-07-03T04:52:32;96508.53;;;14.57;100.00
10014;BME280;45684;48.358;10.746;2022-07-03T04:55:01;96510.84;;;14.67;100.00
10014;BME280;45684;48.358;10.746;2022-07-03T04:57:29;96517.03;;;14.76;100.00
10014;BME280;45684;48.358;10.746;2022-07-03T04:59:57;96521.03;;;14.91;100.00
10014;BME280;45684;48.358;10.746;2022-07-03T05:02:25;96508.41;;;15.08;100.00
10014;BME280;45684;48.358;10.746;2022-07-03T05:04:53;96510.56;;;15.14;100.00
10014;BME280;45684;48.358;10.746;2022-07-03T05:07:20;96513.66;;;15.25;100.00
10014;BME280;45684;48.358;10.746;2022-07-03T05:09:48;96515.16;;;15.35;100.00
10014;BME280;45684;48.358;10.746;2022-07-03T05:12:17;96514.59;;;15.41;100.00
10014;BME280;45684;48.358;10.746;2022-07-03T05:14:45;96523.22;;;15.55;100.00
10014;BME280;45684;48.358;10.746;2022-07-03T05:17:13;96522.22;;;15.60;100.00
10014;BME280;45684;48.358;10.746;2022-07-03T05:19:41;96521.78;;;15.70;100.00
10014;BME280;45684;48.358;10.746;2022-07-03T05:22:09;96524.06;;;15.80;100.00
10014;BME280;45684;48.358;10.746;2022-07-03T05:24:37;96526.69;;;15.89;100.00
10014;BME280;45684;48.358;10.746;2022-07-03T05:27:05;96522.69;;;15.99;100.00
10014;BME280;45684;48.358;10.746;2022-07-03T05:29:34;96516.81;;;16.09;100.00
10014;BME280;45684;48.358;10.746;2022-07-03T05:32:05;96518.25;;;16.19;100.00
10014;BME280;45684;48.358;10.746;2022-07-03T05:34:33;96527.56;;;16.30;100.00
10014;BME280;45684;48.358;10.746;2022-07-03T05:37:01;96521.19;;;16.38;100.00
10014;BME280;45684;48.358;10.746;2022-07-03T05:39:29;96526.25;;;16.52;100.00
10014;BME280;45684;48.358;10.746;2022-07-03T05:42:00;96527.34;;;16.63;100.00
10014;BME280;45684;48.358;10.746;2022-07-03T05:44:28;96520.31;;;16.74;100.00
10014;BME280;45684;48.358;10.746;2022-07-03T05:46:57;96524.13;;;16.86;100.00
10014;BME280;45684;48.358;10.746;2022-07-03T05:49:25;96517.00;;;16.97;100.00
10014;BME280;45684;48.358;10.746;2022-07-03T05:51:53;96522.00;;;17.07;100.00
10014;BME280;45684;48.358;10.746;2022-07-03T05:54:21;96517.94;;;17.17;100.00
10014;BME280;45684;48.358;10.746;2022-07-03T05:56:49;96529.59;;;17.29;100.00
10014;BME280;45684;48.358;10.746;2022-07-03T05:59:17;96529.09;;;17.40;100.00
10014;BME280;45684;48.358;10.746;2022-07-03T06:01:46;96530.16;;;17.51;100.00
10014;BME280;45684;48.358;10.746;2022-07-03T06:04:15;96524.63;;;17.63;100.00
10014;BME280;45684;48.358;10.746;2022-07-03T06:06:43;96534.31;;;17.76;100.00
10014;BME280;45684;48.358;10.746;2022-07-03T06:09:11;96524.81;;;17.86;100.00
10014;BME280;45684;48.358;10.746;2022-07-03T06:11:42;96527.78;;;17.97;100.00
10014;BME280;45684;48.358;10.746;2022-07-03T06:14:10;96533.50;;;18.07;100.00
10014;BME280;45684;48.358;10.746;2022-07-03T06:16:38;96529.00;;;18.15;100.00
10014;BME280;45684;48.358;10.746;2022-07-03T06:19:06;96531.19;;;18.25;100.00
10014;BME280;45684;48.358;10.746;2022-07-03T06:21:35;96534.22;;;18.40;100.00
10014;BME280;45684;48.358;10.746;2022-07-03T06:24:04;96530.59;;;18.51;100.00
10014;BME280;45684;48.358;10.746;2022-07-03T06:26:32;96524.53;;;18.61;100.00
10014;BME280;45684;48.358;10.746;2022-07-03T06:29:00;96533.59;;;18.81;100.00
10014;BME280;45684;48.358;10.746;2022-07-03T06:31:28;96542.88;;;18.96;100.00
10014;BME280;45684;48.358;10.746;2022-07-03T06:33:57;96540.09;;;19.12;100.00
10014;BME280;45684;48.358;10.746;2022-07-03T06:36:25;96546.13;;;19.21;100.00
10014;BME280;45684;48.358;10.746;2022-07-03T06:38:54;96531.53;;;19.36;100.00
10014;BME280;45684;48.358;10.746;2022-07-03T06:41:22;96536.81;;;19.49;100.00
10014;BME280;45684;48.358;10.746;2022-07-03T06:43:50;96533.56;;;19.62;100.00
10014;BME280;45684;48.358;10.746;2022-07-03T06:46:17;96540.03;;;19.74;100.00
10014;BME280;45684;48.358;10.746;2022-07-03T06:48:45;96528.38;;;19.80;100.00
10014;BME280;45684;48.358;10.746;2022-07-03T06:51:13;96537.53;;;19.88;100.00
10014;BME280;45684;48.358;10.746;2022-07-03T06:53:43;96534.09;;;19.95;100.00
10014;BME280;45684;48.358;10.746;2022-07-03T06:56:12;96536.53;;;20.00;100.00
10014;BME280;45684;48.358;10.746;2022-07-03T06:58:40;96537.03;;;20.05;100.00
10014;BME280;45684;48.358;10.746;2022-07-03T07:01:07;96543.84;;;20.15;100.00
10014;BME280;45684;48.358;10.746;2022-07-03T07:03:35;96540.84;;;20.24;100.00
10014;BME280;45684;48.358;10.746;2022-07-03T07:06:03;96541.00;;;20.34;100.00
10014;BME280;45684;48.358;10.746;2022-07-03T07:08:31;96542.25;;;20.41;100.00
10014;BME280;45684;48.358;10.746;2022-07-03T07:10:59;96540.44;;;20.48;100.00
10014;BME280;45684;48.358;10.746;2022-07-03T07:13:32;96537.41;;;20.57;100.00
10014;BME280;45684;48.358;10.746;2022-07-03T07:16:00;96552.47;;;20.70;100.00
10014;BME280;45684;48.358;10.746;2022-07-03T07:18:28;96541.66;;;20.81;100.00
10014;BME280;45684;48.358;10.746;2022-07-03T07:20:56;96549.19;;;20.87;100.00
10014;BME280;45684;48.358;10.746;2022-07-03T07:23:24;96538.34;;;21.02;100.00
10014;BME280;45684;48.358;10.746;2022-07-03T07:25:52;96541.19;;;21.09;100.00
10014;BME280;45684;48.358;10.746;2022-07-03T07:28:20;96540.13;;;21.17;100.00
10014;BME280;45684;48.358;10.746;2022-07-03T07:30:49;96546.25;;;21.37;100.00
10014;BME280;45684;48.358;10.746;2022-07-03T07:33:20;96547.94;;;21.49;100.00
10014;BME280;45684;48.358;10.746;2022-07-03T07:35:49;96543.34;;;21.63;100.00
10014;BME280;45684;48.358;10.746;2022-07-03T07:38:17;96549.78;;;21.75;100.00
10014;BME280;45684;48.358;10.746;2022-07-03T07:40:45;96545.53;;;21.84;100.00
10014;BME280;45684;48.358;10.746;2022-07-03T07:43:13;96541.25;;;21.90;97.26
10014;BME280;45684;48.358;10.746;2022-07-03T07:45:40;96545.28;;;22.04;98.70
10014;BME280;45684;48.358;10.746;2022-07-03T07:48:09;96537.44;;;22.09;96.68
10014;BME280;45684;48.358;10.746;2022-07-03T07:50:37;96547.81;;;22.23;95.80
10014;BME280;45684;48.358;10.746;2022-07-03T07:53:05;96538.78;;;22.26;95.74
10014;BME280;45684;48.358;10.746;2022-07-03T07:55:33;96541.63;;;22.37;95.93
10014;BME280;45684;48.358;10.746;2022-07-03T07:58:01;96545.22;;;22.45;99.61
10014;BME280;45684;48.358;10.746;2022-07-03T08:00:28;96535.00;;;22.49;98.13
10014;BME280;45684;48.358;10.746;2022-07-03T08:02:56;96537.06;;;22.62;92.03
10014;BME280;45684;48.358;10.746;2022-07-03T08:05:43;96542.22;;;22.75;90.37
10014;BME280;45684;48.358;10.746;2022-07-03T08:08:12;96541.88;;;22.83;94.13
10014;BME280;45684;48.358;10.746;2022-07-03T08:10:43;96545.41;;;22.84;89.29
10014;BME280;45684;48.358;10.746;2022-07-03T08:13:12;96547.03;;;22.88;89.66
10014;BME280;45684;48.358;10.746;2022-07-03T08:15:41;96537.25;;;23.02;88.71
10014;BME280;45684;48.358;10.746;2022-07-03T08:18:09;96542.03;;;23.08;84.67
10014;BME280;45684;48.358;10.746;2022-07-03T08:20:37;96546.78;;;23.22;85.65
10014;BME280;45684;48.358;10.746;2022-07-03T08:23:06;96549.59;;;23.36;77.25
10014;BME280;45684;48.358;10.746;2022-07-03T08:25:34;96554.38;;;23.47;74.72
10014;BME280;45684;48.358;10.746;2022-07-03T08:28:02;96557.53;;;23.59;74.28
10014;BME280;45684;48.358;10.746;2022-07-03T08:30:30;96549.28;;;23.66;77.38
10014;BME280;45684;48.358;10.746;2022-07-03T08:32:58;96546.94;;;23.72;73.30
10014;BME280;45684;48.358;10.746;2022-07-03T08:35:27;96547.72;;;23.80;67.26
10014;BME280;45684;48.358;10.746;2022-07-03T08:37:55;96551.28;;;23.95;67.86
10014;BME280;45684;48.358;10.746;2022-07-03T08:40:25;96541.44;;;23.97;67.34
10014;BME280;45684;48.358;10.746;2022-07-03T08:42:54;96547.72;;;24.19;60.67
10014;BME280;45684;48.358;10.746;2022-07-03T08:45:24;96540.22;;;24.23;61.60
10014;BME280;45684;48.358;10.746;2022-07-03T08:47:54;96542.59;;;24.35;61.68
10014;BME280;45684;48.358;10.746;2022-07-03T08:50:22;96538.25;;;24.45;57.73
10014;BME280;45684;48.358;10.746;2022-07-03T08:52:51;96533.47;;;24.60;57.93
10014;BME280;45684;48.358;10.746;2022-07-03T08:55:19;96536.56;;;24.83;51.77
10014;BME280;45684;48.358;10.746;2022-07-03T08:57:48;96537.72;;;24.97;51.79
10014;BME280;45684;48.358;10.746;2022-07-03T09:00:18;96528.63;;;24.96;50.86
10014;BME280;45684;48.358;10.746;2022-07-03T09:02:47;96527.78;;;25.06;53.64
10014;BME280;45684;48.358;10.746;2022-07-03T09:05:16;96530.56;;;25.10;46.41
10014;BME280;45684;48.358;10.746;2022-07-03T09:07:45;96537.25;;;25.23;46.84
10014;BME280;45684;48.358;10.746;2022-07-03T09:10:15;96532.44;;;25.34;46.16
10014;BME280;45684;48.358;10.746;2022-07-03T09:12:44;96533.56;;;25.44;46.11
10014;BME280;45684;48.358;10.746;2022-07-03T09:15:14;96537.09;;;25.52;46.35
10014;BME280;45684;48.358;10.746;2022-07-03T09:17:56;96531.44;;;25.69;49.40
10014;BME280;45684;48.358;10.746;2022-07-03T09:20:30;96530.47;;;25.98;44.27
10014;BME280;45684;48.358;10.746;2022-07-03T09:23:12;96536.53;;;26.30;44.47
10014;BME280;45684;48.358;10.746;2022-07-03T09:25:57;96537.97;;;26.45;45.63
10014;BME280;45684;48.358;10.746;2022-07-03T09:28:41;96527.53;;;26.60;42.70
10014;BME280;45684;48.358;10.746;2022-07-03T09:31:12;96529.81;;;26.69;42.07
10014;BME280;45684;48.358;10.746;2022-07-03T09:33:54;96528.91;;;26.79;39.08
10014;BME280;45684;48.358;10.746;2022-07-03T09:36:37;96521.22;;;26.90;40.27
10014;BME280;45684;48.358;10.746;2022-07-03T09:39:16;96519.25;;;27.25;41.87
10014;BME280;45684;48.358;10.746;2022-07-03T09:41:53;96524.13;;;27.44;42.51
10014;BME280;45684;48.358;10.746;2022-07-03T09:44:32;96510.28;;;27.71;43.12
10014;BME280;45684;48.358;10.746;2022-07-03T09:47:10;96518.69;;;27.37;39.98
10014;BME280;45684;48.358;10.746;2022-07-03T09:49:51;96521.41;;;27.68;39.76
10014;BME280;45684;48.358;10.746;2022-07-03T09:52:29;96515.06;;;27.67;37.13
10014;BME280;45684;48.358;10.746;2022-07-03T09:54:58;96518.31;;;27.62;35.25
10014;BME280;45684;48.358;10.746;2022-07-03T09:57:27;96518.50;;;28.02;35.06
10014;BME280;45684;48.358;10.746;2022-07-03T10:00:09;96517.19;;;28.34;36.64
10014;BME280;45684;48.358;10.746;2022-07-03T10:02:53;96513.56;;;28.60;39.93
10014;BME280;45684;48.358;10.746;2022-07-03T10:05:22;96510.28;;;28.65;36.41
10014;BME280;45684;48.358;10.746;2022-07-03T10:07:52;96517.34;;;28.70;34.32
10014;BME280;45684;48.358;10.746;2022-07-03T10:10:21;96514.22;;;28.44;32.10
10014;BME280;45684;48.358;10.746;2022-07-03T10:12:50;96513.81;;;28.46;31.75
10014;BME280;45684;48.358;10.746;2022-07-03T10:15:19;96514.22;;;28.68;32.48
10014;BME280;45684;48.358;10.746;2022-07-03T10:17:49;96507.78;;;28.71;32.43
10014;BME280;45684;48.358;10.746;2022-07-03T10:20:25;96509.34;;;28.72;31.77
10014;BME280;45684;48.358;10.746;2022-07-03T10:22:53;96505.28;;;28.77;31.88
10014;BME280;45684;48.358;10.746;2022-07-03T10:25:22;96496.13;;;28.76;30.26
10014;BME280;45684;48.358;10.746;2022-07-03T10:27:50;96497.06;;;29.29;30.70
10014;BME280;45684;48.358;10.746;2022-07-03T10:30:19;96498.81;;;29.59;28.48
10014;BME280;45684;48.358;10.746;2022-07-03T10:33:01;96494.38;;;29.42;29.93
10014;BME280;45684;48.358;10.746;2022-07-03T10:35:34;96495.34;;;29.71;28.78
10014;BME280;45684;48.358;10.746;2022-07-03T10:38:16;96494.22;;;29.85;27.74
10014;BME280;45684;48.358;10.746;2022-07-03T10:40:53;96492.47;;;30.24;27.63
10014;BME280;45684;48.358;10.746;2022-07-03T10:43:40;96493.72;;;30.52;28.03
10014;BME280;45684;48.358;10.746;2022-07-03T10:46:29;96490.34;;;30.44;27.15
10014;BME280;45684;48.358;10.746;2022-07-03T10:49:03;96487.13;;;30.46;27.60
10014;BME280;45684;48.358;10.746;2022-07-03T10:51:52;96496.03;;;30.41;28.58
10014;BME280;45684;48.358;10.746;2022-07-03T10:54:22;96485.28;;;30.39;27.58
10014;BME280;45684;48.358;10.746;2022-07-03T10:57:14;96489.56;;;31.02;26.06
10014;BME280;45684;48.358;10.746;2022-07-03T11:00:07;96487.88;;;31.34;25.85
10014;BME280;45684;48.358;10.746;2022-07-03T11:02:37;96479.63;;;30.72;26.11
10014;BME280;45684;48.358;10.746;2022-07-03T11:05:36;96491.59;;;30.72;26.19
10014;BME280;45684;48.358;10.746;2022-07-03T11:08:14;96477.72;;;30.69;25.32
10014;BME280;45684;48.358;10.746;2022-07-03T11:10:43;96467.63;;;31.30;28.69
10014;BME280;45684;48.358;10.746;2022-07-03T11:13:18;96470.00;;;31.15;26.13
10014;BME280;45684;48.358;10.746;2022-07-03T11:15:50;96470.78;;;31.03;26.79
10014;BME280;45684;48.358;10.746;2022-07-03T11:18:30;96464.28;;;31.35;26.98
10014;BME280;45684;48.358;10.746;2022-07-03T11:21:29;96468.72;;;31.70;26.58
10014;BME280;45684;48.358;10.746;2022-07-03T11:24:18;96455.19;;;31.56;27.79
10014;BME280;45684;48.358;10.746;2022-07-03T11:27:13;96454.63;;;31.61;27.51
10014;BME280;45684;48.358;10.746;2022-07-03T11:29:41;96452.81;;;31.80;26.89
10014;BME280;45684;48.358;10.746;2022-07-03T11:32:47;96455.53;;;31.71;25.67
10014;BME280;45684;48.358;10.746;2022-07-03T11:35:45;96441.00;;;31.76;26.30
10014;BME280;45684;48.358;10.746;2022-07-03T11:38:15;96455.19;;;31.56;25.48
10014;BME280;45684;48.358;10.746;2022-07-03T11:40:46;96444.44;;;31.80;26.97
10014;BME280;45684;48.358;10.746;2022-07-03T11:43:15;96447.59;;;31.82;25.55
10014;BME280;45684;48.358;10.746;2022-07-03T11:45:43;96453.91;;;32.08;26.23
10014;BME280;45684;48.358;10.746;2022-07-03T11:48:13;96442.28;;;32.10;26.56
10014;BME280;45684;48.358;10.746;2022-07-03T11:50:42;96434.97;;;31.39;24.73
10014;BME280;45684;48.358;10.746;2022-07-03T11:56:05;96434.22;;;32.12;25.97
10014;BME280;45684;48.358;10.746;2022-07-03T11:58:41;96428.97;;;32.14;25.63
10014;BME280;45684;48.358;10.746;2022-07-03T12:01:10;96435.06;;;32.21;25.80
10014;BME280;45684;48.358;10.746;2022-07-03T12:03:38;96430.06;;;32.16;24.85
10014;BME280;45684;48.358;10.746;2022-07-03T12:06:06;96432.00;;;32.07;25.50
10014;BME280;45684;48.358;10.746;2022-07-03T12:08:34;96429.81;;;32.23;25.03
10014;BME280;45684;48.358;10.746;2022-07-03T12:11:06;96435.84;;;32.22;25.48
10014;BME280;45684;48.358;10.746;2022-07-03T12:13:35;96425.56;;;32.54;26.44
10014;BME280;45684;48.358;10.746;2022-07-03T12:16:05;96417.69;;;32.83;27.14
10014;BME280;45684;48.358;10.746;2022-07-03T12:18:48;96429.69;;;32.62;24.54
10014;BME280;45684;48.358;10.746;2022-07-03T12:21:18;96426.34;;;32.54;25.38
10014;BME280;45684;48.358;10.746;2022-07-03T12:23:48;96423.88;;;32.78;25.97
10014;BME280;45684;48.358;10.746;2022-07-03T12:26:31;96432.03;;;32.41;25.85
10014;BME280;45684;48.358;10.746;2022-07-03T12:29:00;96427.91;;;32.77;25.41
10014;BME280;45684;48.358;10.746;2022-07-03T12:31:29;96430.59;;;32.81;26.07
10014;BME280;45684;48.358;10.746;2022-07-03T12:33:57;96425.34;;;33.14;25.61
10014;BME280;45684;48.358;10.746;2022-07-03T12:36:26;96425.69;;;33.16;25.22
10014;BME280;45684;48.358;10.746;2022-07-03T12:38:55;96412.03;;;33.67;25.46
10014;BME280;45684;48.358;10.746;2022-07-03T12:41:24;96417.31;;;34.42;25.46
10014;BME280;45684;48.358;10.746;2022-07-03T12:43:54;96405.69;;;34.95;24.44
10014;BME280;45684;48.358;10.746;2022-07-03T12:46:23;96409.69;;;34.52;24.14
10014;BME280;45684;48.358;10.746;2022-07-03T12:48:52;96403.72;;;34.41;23.57
10014;BME280;45684;48.358;10.746;2022-07-03T12:51:37;96396.88;;;34.33;24.88
10014;BME280;45684;48.358;10.746;2022-07-03T12:54:06;96407.28;;;34.96;25.47
10014;BME280;45684;48.358;10.746;2022-07-03T12:56:34;96397.66;;;34.51;24.35
10014;BME280;45684;48.358;10.746;2022-07-03T12:59:04;96390.13;;;34.76;24.37
10014;BME280;45684;48.358;10.746;2022-07-03T13:01:43;96392.19;;;34.66;24.06
10014;BME280;45684;48.358;10.746;2022-07-03T13:04:12;96378.88;;;34.76;24.36
10014;BME280;45684;48.358;10.746;2022-07-03T13:06:42;96377.59;;;34.95;25.53
10014;BME280;45684;48.358;10.746;2022-07-03T13:09:11;96381.22;;;34.77;24.57